Time;durP1;ratioP1;P1;durP2;ratioP2;P2;SDS_P1;SDS_P2;PMS_P1;PMS_P2;Temp;Humidity;BMP_temperature;BMP_pressure;BME280_temperature;BME280_humidity;BME280_pressure;Samples;Min_cycle;Max_cycle;Signal;HPM_P1;HPM_P2
2022/04/01 00:00:09;;;;;;;3.00;2.90;;;;;;;1.93;100.00;99507.47;6105638;23;20038;-65
2022/04/01 00:02:37;;;;;;;3.33;3.22;;;;;;;2.45;100.00;99597.94;6113804;23;20020;-66
2022/04/01 00:05:06;;;;;;;3.35;3.25;;;;;;;2.23;100.00;99576.31;6110438;23;20508;-66
2022/04/01 00:07:38;;;;;;;2.72;2.63;;;;;;;2.38;100.00;99606.81;6092989;23;20032;-66
2022/04/01 00:10:05;;;;;;;3.22;3.13;;;;;;;2.39;100.00;99604.16;6111917;23;20351;-66
2022/04/01 00:12:31;;;;;;;3.17;2.97;;;;;;;2.34;100.00;99606.06;6072308;23;20131;-66
2022/04/01 00:14:58;;;;;;;4.53;4.32;;;;;;;2.35;100.00;99607.75;6097234;23;20040;-66
2022/04/01 00:17:24;;;;;;;2.97;2.88;;;;;;;2.11;100.00;99582.75;6107728;23;20022;-66
2022/04/01 00:19:50;;;;;;;4.30;4.10;;;;;;;1.98;100.00;99552.16;6107393;23;20100;-66
2022/04/01 00:22:17;;;;;;;2.80;2.70;;;;;;;2.27;100.00;99614.97;6115745;23;20018;-66
2022/04/01 00:24:43;;;;;;;2.80;2.70;;;;;;;1.94;100.00;99571.22;6114403;23;20020;-66
2022/04/01 00:27:10;;;;;;;3.13;3.03;;;;;;;1.96;100.00;99579.78;6089797;23;20024;-67
2022/04/01 00:29:36;;;;;;;2.70;2.60;;;;;;;2.16;100.00;99612.72;6132011;23;20303;-66
2022/04/01 00:32:03;;;;;;;5.38;5.07;;;;;;;2.12;100.00;99616.31;6109800;23;20024;-65
2022/04/01 00:34:33;;;;;;;2.80;2.70;;;;;;;1.66;100.00;99539.47;6109941;23;20075;-66
2022/04/01 00:37:01;;;;;;;4.45;4.25;;;;;;;2.02;100.00;99617.56;6118494;23;20368;-67
2022/04/01 00:39:30;;;;;;;2.75;2.65;;;;;;;1.68;100.00;99566.13;6114576;23;20009;-66
2022/04/01 00:41:59;;;;;;;4.93;4.72;;;;;;;1.99;100.00;99622.84;6116433;23;20092;-66
2022/04/01 00:44:28;;;;;;;2.60;2.50;;;;;;;1.94;100.00;99620.41;6100601;23;20016;-66
2022/04/01 00:46:57;;;;;;;5.07;4.88;;;;;;;1.96;100.00;99628.94;6115346;23;20021;-66
2022/04/01 00:49:26;;;;;;;2.80;2.70;;;;;;;1.76;100.00;99597.75;6121779;23;20449;-66
2022/04/01 00:51:55;;;;;;;4.60;4.40;;;;;;;1.90;100.00;99639.50;6117732;23;20092;-65
2022/04/01 00:54:22;;;;;;;2.60;2.50;;;;;;;1.89;100.00;99631.81;6114578;23;20013;-66
2022/04/01 00:56:49;;;;;;;3.60;3.47;;;;;;;1.86;100.00;99637.91;6115248;23;20041;-65
2022/04/01 00:59:16;;;;;;;2.55;2.45;;;;;;;1.86;100.00;99648.28;6114353;23;20029;-67
2022/04/01 01:01:44;;;;;;;3.10;2.90;;;;;;;1.67;100.00;99611.00;6116542;23;20032;-66
2022/04/01 01:04:13;;;;;;;2.72;2.63;;;;;;;1.80;100.00;99638.13;6112842;23;20579;-66
2022/04/01 01:06:43;;;;;;;2.50;2.40;;;;;;;1.81;100.00;99647.59;6107831;23;20034;-66
2022/04/01 01:09:11;;;;;;;2.58;2.47;;;;;;;1.80;100.00;99651.06;6115158;23;20010;-67
2022/04/01 01:11:38;;;;;;;2.80;2.70;;;;;;;1.78;100.00;99650.25;6094364;23;20145;-66
2022/04/01 01:14:08;;;;;;;3.60;3.50;;;;;;;1.77;100.00;99641.66;6109179;23;20020;-66
2022/04/01 01:16:36;;;;;;;2.92;2.80;;;;;;;1.71;100.00;99647.03;6125735;23;20450;-67
2022/04/01 01:19:13;;;;;;;2.60;2.50;;;;;;;1.72;100.00;99653.06;6126890;23;20026;-66
2022/04/01 01:21:40;;;;;;;2.60;2.50;;;;;;;1.71;100.00;99651.38;6116207;23;20096;-65
2022/04/01 01:24:11;;;;;;;2.83;2.72;;;;;;;1.70;100.00;99645.34;6085782;23;20466;-66
2022/04/01 01:26:39;;;;;;;2.50;2.40;;;;;;;1.59;100.00;99637.94;6097681;23;20451;-67
2022/04/01 01:29:06;;;;;;;3.35;3.25;;;;;;;1.67;100.00;99654.97;6113485;23;20442;-66
2022/04/01 01:31:33;;;;;;;2.50;2.40;;;;;;;1.62;100.00;99664.59;6113597;23;20009;-66
2022/04/01 01:34:00;;;;;;;4.68;4.47;;;;;;;1.35;100.00;99615.47;6112667;23;20146;-66
2022/04/01 01:36:29;;;;;;;2.70;2.60;;;;;;;0.47;100.00;99455.47;6087338;23;20014;-66
2022/04/01 01:38:56;;;;;;;4.35;4.15;;;;;;;1.59;100.00;99653.47;6120633;23;20434;-65
2022/04/01 01:41:23;;;;;;;2.60;2.50;;;;;;;1.59;100.00;99650.88;6121712;23;20047;-66
2022/04/01 01:43:51;;;;;;;4.50;4.30;;;;;;;1.20;100.00;99598.69;6122577;23;20035;-66
2022/04/01 01:46:18;;;;;;;2.80;2.70;;;;;;;1.58;100.00;99667.31;6123625;23;20028;-66
2022/04/01 01:48:44;;;;;;;2.70;2.60;;;;;;;1.12;100.00;99580.00;6120928;23;20013;-65
2022/04/01 01:56:42;;;;;;;2.78;2.67;;;;;;;1.47;100.00;99659.03;6117321;23;20061;-66
2022/04/01 01:59:12;;;;;;;2.60;2.50;;;;;;;1.55;100.00;99661.38;6121954;23;20021;-66
2022/04/01 02:01:39;;;;;;;2.40;2.30;;;;;;;1.57;100.00;99670.75;6117927;23;20491;-65
2022/04/01 02:04:06;;;;;;;2.53;2.42;;;;;;;1.55;100.00;99667.38;6098564;23;20006;-65
2022/04/01 02:06:33;;;;;;;2.50;2.40;;;;;;;1.52;100.00;99662.28;6120801;23;20336;-66
2022/04/01 02:09:00;;;;;;;3.85;3.72;;;;;;;1.48;100.00;99657.28;6112466;23;20337;-66
2022/04/01 02:11:27;;;;;;;2.85;2.75;;;;;;;1.50;100.00;99666.66;6117868;23;20088;-65
2022/04/01 02:13:53;;;;;;;5.25;4.95;;;;;;;1.50;100.00;99669.25;6112304;23;20447;-66
2022/04/01 02:16:21;;;;;;;2.80;2.70;;;;;;;1.49;100.00;99672.75;6128966;23;20047;-66
2022/04/01 02:18:49;;;;;;;3.92;3.78;;;;;;;1.49;100.00;99672.75;6115807;23;20057;-66
2022/04/01 02:21:17;;;;;;;5.63;5.40;;;;;;;1.17;100.00;99617.72;6082784;23;20025;-66
2022/04/01 02:23:46;;;;;;;2.65;2.55;;;;;;;1.45;100.00;99675.50;6076006;23;20025;-66
2022/04/01 02:26:14;;;;;;;2.60;2.50;;;;;;;1.41;100.00;99674.72;6076344;23;20010;-66
2022/04/01 02:28:42;;;;;;;2.70;2.60;;;;;;;1.42;100.00;99667.81;6091934;23;20223;-66
2022/04/01 02:31:11;;;;;;;2.70;2.60;;;;;;;1.40;100.00;99673.03;6083684;23;20357;-66
2022/04/01 02:33:37;;;;;;;2.50;2.40;;;;;;;1.40;100.00;99675.59;6072565;23;20034;-66
2022/04/01 02:36:10;;;;;;;2.88;2.78;;;;;;;1.14;100.00;99638.50;6086408;23;20152;-66
2022/04/01 02:38:38;;;;;;;;;;;;;;;1.38;100.00;99677.41;6108590;23;20042;-66
2022/04/01 02:41:06;;;;;;;2.40;2.30;;;;;;;1.18;100.00;99660.78;6093666;23;20257;-66
2022/04/01 02:43:33;;;;;;;2.38;2.28;;;;;;;1.24;100.00;99666.63;6115863;23;20065;-66
2022/04/01 02:46:00;;;;;;;3.83;3.70;;;;;;;1.17;100.00;99659.06;6080855;23;20377;-66
2022/04/01 02:48:27;;;;;;;4.43;3.88;;;;;;;1.32;100.00;99700.84;6104293;23;20017;-66
2022/04/01 02:50:53;;;;;;;3.58;3.47;;;;;;;1.19;100.00;99659.03;6066817;23;20414;-66
2022/04/01 02:53:20;;;;;;;2.40;2.30;;;;;;;1.29;100.00;99693.22;6069371;23;20635;-66
2022/04/01 02:55:47;;;;;;;3.20;3.10;;;;;;;1.14;100.00;99672.09;6095356;23;20065;-65
2022/04/01 02:58:14;;;;;;;2.50;2.40;;;;;;;1.30;100.00;99705.22;6076448;23;20024;-66
2022/04/01 03:00:41;;;;;;;2.60;2.50;;;;;;;1.06;100.00;99674.03;6090335;23;20044;-66
2022/04/01 03:03:08;;;;;;;2.50;2.40;;;;;;;1.25;100.00;99694.19;6075103;23;20101;-66
2022/04/01 03:05:39;;;;;;;2.50;2.40;;;;;;;0.95;100.00;99671.78;6080247;23;20025;-65
2022/04/01 03:08:07;;;;;;;2.60;2.50;;;;;;;1.17;100.00;99715.09;6073932;23;20025;-66
2022/04/01 03:10:35;;;;;;;2.60;2.50;;;;;;;1.13;100.00;99710.91;6087116;23;20042;-65
2022/04/01 03:13:03;;;;;;;4.28;4.07;;;;;;;1.13;100.00;99716.91;6080494;23;20101;-66
2022/04/01 03:15:30;;;;;;;2.65;2.55;;;;;;;1.11;100.00;99718.69;6069983;23;20012;-66
2022/04/01 03:17:57;;;;;;;4.55;4.35;;;;;;;1.11;100.00;99723.03;6107395;23;20035;-66
2022/04/01 03:20:24;;;;;;;2.50;2.40;;;;;;;0.92;100.00;99700.31;6106749;23;20056;-66
2022/04/01 03:22:51;;;;;;;3.30;3.20;;;;;;;1.07;100.00;99721.41;6107693;23;20025;-65
2022/04/01 03:25:19;;;;;;;2.50;2.40;;;;;;;1.07;100.00;99722.25;6121435;23;20013;-66
2022/04/01 03:27:47;;;;;;;2.70;2.60;;;;;;;1.08;100.00;99738.59;6112668;23;20439;-66
2022/04/01 03:30:15;;;;;;;2.67;2.58;;;;;;;1.05;100.00;99741.28;6094555;23;20081;-66
2022/04/01 03:32:42;;;;;;;2.60;2.50;;;;;;;0.90;100.00;99727.06;6109831;23;20089;-66
2022/04/01 03:35:13;;;;;;;2.90;2.80;;;;;;;0.94;100.00;99762.25;6105697;23;20032;-66
2022/04/01 03:37:39;;;;;;;2.50;2.40;;;;;;;1.02;100.00;99752.53;6109865;23;20035;-65
2022/04/01 03:40:06;;;;;;;3.40;3.30;;;;;;;0.85;100.00;99727.19;6095125;23;20024;-66
2022/04/01 03:42:32;;;;;;;2.50;2.40;;;;;;;0.99;100.00;99762.97;6108872;23;20032;-66
2022/04/01 03:45:03;;;;;;;4.80;4.60;;;;;;;0.97;100.00;99759.59;6115197;23;20674;-66
2022/04/01 03:47:40;;;;;;;2.80;2.70;;;;;;;0.99;99.56;99756.06;6092726;23;20041;-65
2022/04/01 03:50:12;;;;;;;2.22;2.13;;;;;;;1.01;99.89;99760.34;6097601;23;21499;-66
2022/04/01 03:52:38;;;;;;;2.47;2.37;;;;;;;1.00;100.00;99754.31;6099041;23;20017;-66
2022/04/01 03:55:08;;;;;;;3.03;2.92;;;;;;;0.94;99.67;99765.69;6115667;23;20855;-66
2022/04/01 03:57:40;;;;;;;2.53;2.42;;;;;;;0.70;99.45;99719.84;6110992;23;20560;-66
2022/04/01 04:00:12;;;;;;;2.90;2.80;;;;;;;0.96;99.77;99768.22;6116020;23;20059;-66
2022/04/01 04:02:41;;;;;;;2.35;2.25;;;;;;;0.75;98.58;99738.66;6108833;23;20442;-66
2022/04/01 04:05:09;;;;;;;2.10;2.00;;;;;;;0.97;99.20;99769.91;6114270;23;21099;-66
2022/04/01 04:07:38;;;;;;;2.40;2.30;;;;;;;0.78;98.07;99757.50;6114138;23;20309;-66
2022/04/01 04:10:06;;;;;;;3.05;2.95;;;;;;;0.95;97.76;99782.03;6108748;23;20025;-66
2022/04/01 04:12:36;;;;;;;2.40;2.30;;;;;;;0.85;98.90;99758.19;6098310;23;20395;-66
2022/04/01 04:15:03;;;;;;;4.05;3.85;;;;;;;0.96;98.63;99792.31;6112592;23;20506;-67
2022/04/01 04:17:44;;;;;;;2.40;2.30;;;;;;;0.93;97.47;99787.22;6118358;23;20080;-66
2022/04/01 04:20:28;;;;;;;2.50;2.40;;;;;;;0.92;97.08;99787.25;6092197;23;20145;-66
2022/04/01 04:23:11;;;;;;;4.78;4.55;;;;;;;0.92;96.78;99790.72;6109958;23;20106;-66
2022/04/01 04:25:38;;;;;;;;;;;;;;;0.92;96.51;99792.44;6099476;23;20014;-67
2022/04/01 04:28:12;;;;;;;2.50;2.40;;;;;;;0.89;96.28;99801.13;6120615;23;20203;-65
2022/04/01 04:30:52;;;;;;;2.40;2.30;;;;;;;0.93;97.79;99796.72;6114440;23;20025;-66
2022/04/01 04:33:28;;;;;;;2.55;2.45;;;;;;;0.90;97.80;99813.16;6079482;23;20018;-66
2022/04/01 04:35:54;;;;;;;4.18;3.97;;;;;;;0.77;97.99;99786.78;6119549;23;20084;-66
2022/04/01 04:38:22;;;;;;;2.60;2.50;;;;;;;0.87;97.33;99812.38;6104697;23;20539;-66
2022/04/01 04:40:49;;;;;;;2.67;2.58;;;;;;;0.88;96.94;99816.66;6120823;23;20033;-66
2022/04/01 04:43:18;;;;;;;2.40;2.30;;;;;;;0.60;96.99;99768.31;6113984;23;20021;-66
2022/04/01 04:45:49;;;;;;;2.45;2.35;;;;;;;0.88;97.22;99814.06;6117660;23;20074;-64
2022/04/01 04:48:17;;;;;;;2.40;2.30;;;;;;;0.85;97.47;99820.16;6086546;23;20134;-66
2022/04/01 04:50:49;;;;;;;2.40;2.30;;;;;;;0.87;96.80;99822.72;6104635;23;20017;-66
2022/04/01 04:53:19;;;;;;;2.60;2.50;;;;;;;0.62;96.42;99789.78;6114117;23;21178;-66
2022/04/01 04:55:49;;;;;;;2.60;2.50;;;;;;;0.84;97.24;99825.38;6100184;23;20011;-66
2022/04/01 04:58:17;;;;;;;2.33;2.22;;;;;;;0.51;96.32;99778.91;6092198;23;20017;-69
2022/04/01 05:00:51;;;;;;;2.20;2.10;;;;;;;0.85;96.53;99829.66;6114280;23;20018;-65
2022/04/01 05:03:29;;;;;;;2.50;2.40;;;;;;;0.85;96.71;99827.09;6111731;23;20052;-66
2022/04/01 05:05:56;;;;;;;4.57;4.38;;;;;;;0.85;95.97;99850.31;6093156;23;20022;-66
2022/04/01 05:08:49;;;;;;;3.08;2.97;;;;;;;0.78;94.98;99845.31;6116323;23;20085;-66
2022/04/01 05:11:35;;;;;;;2.33;2.22;;;;;;;0.83;96.05;99850.34;6083063;23;20089;-66
2022/04/01 05:14:30;;;;;;;4.57;4.38;;;;;;;0.28;95.53;99785.50;6103304;23;20049;-66
2022/04/01 05:17:04;;;;;;;4.18;3.97;;;;;;;0.86;95.50;99863.19;6114962;23;20122;-65
2022/04/01 05:19:32;;;;;;;2.50;2.40;;;;;;;0.42;95.21;99799.75;6117655;23;20016;-65
2022/04/01 05:22:09;;;;;;;4.78;4.57;;;;;;;0.79;95.16;99872.81;6114299;23;20069;-67
2022/04/01 05:24:47;;;;;;;2.47;2.38;;;;;;;0.81;95.96;99871.97;6113216;23;20717;-65
2022/04/01 05:27:26;;;;;;;2.40;2.30;;;;;;;0.77;97.15;99877.19;6115486;23;20005;-65
2022/04/01 05:30:16;;;;;;;4.00;3.83;;;;;;;0.64;94.84;99847.38;6118114;23;20030;-66
2022/04/01 05:32:59;;;;;;;2.50;2.40;;;;;;;0.79;94.79;99883.16;6098375;23;20056;-65
2022/04/01 05:35:29;;;;;;;2.40;2.30;;;;;;;0.80;95.76;99884.00;6119385;23;20016;-67
2022/04/01 05:37:58;;;;;;;4.35;4.15;;;;;;;0.50;95.63;99834.84;6114612;23;20023;-65
2022/04/01 05:40:25;;;;;;;2.40;2.30;;;;;;;0.78;94.90;99885.78;6104816;23;20505;-66
2022/04/01 05:42:54;;;;;;;4.75;4.55;;;;;;;0.77;93.95;99903.00;6106514;23;20022;-64
2022/04/01 05:45:25;;;;;;;2.50;2.40;;;;;;;0.46;94.41;99842.69;6100545;23;20033;-65
2022/04/01 05:47:53;;;;;;;4.35;4.15;;;;;;;0.48;93.47;99843.50;6070395;23;20247;-65
2022/04/01 05:50:20;;;;;;;2.50;2.40;;;;;;;0.63;93.18;99889.59;6113478;23;20069;-65
2022/04/01 05:52:47;;;;;;;2.70;2.60;;;;;;;0.78;93.55;99917.63;6107714;23;20221;-65
2022/04/01 05:55:22;;;;;;;2.25;2.15;;;;;;;0.73;92.09;99910.88;6102144;23;20018;-65
2022/04/01 05:57:48;;;;;;;3.95;3.75;;;;;;;0.78;92.29;99922.81;6093863;23;20368;-65
2022/04/01 06:00:15;;;;;;;2.78;2.67;;;;;;;0.58;93.05;99910.38;6103639;23;20084;-64
2022/04/01 06:02:52;;;;;;;2.60;2.50;;;;;;;0.76;92.60;99931.44;6083449;23;20066;-65
2022/04/01 06:05:48;;;;;;;2.40;2.30;;;;;;;0.79;93.31;99941.72;6097065;23;20025;-65
2022/04/01 06:08:33;;;;;;;2.50;2.40;;;;;;;-0.12;92.14;99788.16;6070064;23;20009;-66
2022/04/01 06:11:07;;;;;;;4.65;4.35;;;;;;;0.75;91.85;99945.25;6114058;23;20068;-67
2022/04/01 06:13:45;;;;;;;2.60;2.50;;;;;;;0.75;92.05;99945.25;6112560;23;20026;-64
2022/04/01 06:16:25;;;;;;;2.63;2.53;;;;;;;0.74;92.38;99951.28;6114542;23;20041;-66
2022/04/01 06:19:10;;;;;;;4.22;4.03;;;;;;;0.74;92.28;99961.63;6114459;23;20014;-65
2022/04/01 06:21:46;;;;;;;2.40;2.30;;;;;;;0.71;92.02;99959.97;6110809;23;20033;-67
2022/04/01 06:24:45;;;;;;;2.70;2.60;;;;;;;0.70;90.40;99968.63;6115797;23;20019;-65
2022/04/01 06:27:17;;;;;;;2.60;2.50;;;;;;;0.73;91.29;99968.53;6116832;23;20023;-65
2022/04/01 06:29:47;;;;;;;2.70;2.60;;;;;;;0.02;91.93;99854.91;6118968;23;20017;-66
2022/04/01 06:32:29;;;;;;;2.90;2.80;;;;;;;0.70;92.34;99960.00;6069055;23;20566;-68
2022/04/01 06:35:04;;;;;;;4.07;3.88;;;;;;;0.71;91.18;99972.88;6109973;23;20023;-67
2022/04/01 06:37:41;;;;;;;2.40;2.30;;;;;;;0.72;90.93;99979.78;6106955;23;20707;-66
2022/04/01 06:40:10;;;;;;;2.60;2.50;;;;;;;0.71;90.92;99983.22;6093888;23;20202;-64
2022/04/01 06:42:38;;;;;;;2.60;2.50;;;;;;;0.71;91.73;99988.38;6098154;23;20100;-66
2022/04/01 06:45:10;;;;;;;3.40;3.30;;;;;;;0.55;91.33;99956.06;6115814;23;20276;-67
2022/04/01 06:47:37;;;;;;;2.60;2.50;;;;;;;0.59;91.49;99968.00;6114406;23;20052;-64
2022/04/01 06:50:04;;;;;;;2.50;2.40;;;;;;;0.65;91.36;99996.28;6105560;23;20068;-66
2022/04/01 06:52:30;;;;;;;2.80;2.70;;;;;;;0.68;89.25;99992.75;6097497;23;20017;-67
2022/04/01 06:54:57;;;;;;;4.40;4.20;;;;;;;0.69;89.75;100000.47;6104861;23;20029;-64
2022/04/01 06:57:24;;;;;;;2.50;2.40;;;;;;;0.72;89.51;100010.75;6110321;23;20952;-65
2022/04/01 06:59:51;;;;;;;4.80;4.60;;;;;;;0.62;90.27;99993.75;6096378;23;20096;-64
2022/04/01 07:02:18;;;;;;;2.70;2.60;;;;;;;0.62;90.09;100004.06;6100501;23;20017;-64
2022/04/01 07:04:44;;;;;;;2.70;2.60;;;;;;;0.55;89.94;99992.22;6107688;23;20028;-64
2022/04/01 07:07:11;;;;;;;2.35;2.25;;;;;;;0.74;90.23;100019.31;6097624;23;20030;-64
2022/04/01 07:09:38;;;;;;;2.75;2.65;;;;;;;0.73;90.09;100021.94;6106155;23;20019;-65
2022/04/01 07:12:05;;;;;;;3.33;3.22;;;;;;;0.36;89.46;99971.97;6100103;23;20024;-65
2022/04/01 07:14:31;;;;;;;2.60;2.50;;;;;;;0.57;88.98;99990.44;6105678;23;20028;-65
2022/04/01 07:16:59;;;;;;;3.90;3.75;;;;;;;0.72;89.89;100028.84;6109151;23;20021;-65
2022/04/01 07:19:26;;;;;;;2.78;2.58;;;;;;;0.72;90.60;100026.25;6119769;23;20041;-65
2022/04/01 07:21:52;;;;;;;4.10;3.92;;;;;;;0.72;89.88;100034.00;6098404;23;20096;-65
2022/04/01 07:24:19;;;;;;;2.30;2.20;;;;;;;0.74;89.97;100031.34;6112915;23;20295;-65
2022/04/01 07:26:46;;;;;;;2.47;2.38;;;;;;;0.73;90.48;100043.44;6113498;23;20024;-66
2022/04/01 07:29:13;;;;;;;2.10;2.00;;;;;;;0.74;90.70;100034.81;6103648;23;20122;-65
2022/04/01 07:34:39;;;;;;;2.40;2.30;;;;;;;0.52;89.42;100015.50;6088028;23;20073;-65
2022/04/01 07:37:05;;;;;;;3.03;2.92;;;;;;;0.24;88.86;99966.22;6104378;23;20044;-65
2022/04/01 07:39:32;;;;;;;2.38;2.28;;;;;;;0.78;89.71;100046.78;6118134;23;20017;-64
2022/04/01 07:41:58;;;;;;;4.15;3.95;;;;;;;0.76;88.94;100056.28;6099416;23;20122;-65
2022/04/01 07:44:25;;;;;;;2.20;2.10;;;;;;;0.73;88.80;100040.84;6116395;23;20588;-65
2022/04/01 07:46:52;;;;;;;4.28;4.07;;;;;;;0.64;88.32;100028.13;6117866;23;20035;-65
2022/04/01 07:49:19;;;;;;;2.40;2.30;;;;;;;0.73;88.76;100055.50;6086868;23;20077;-66
2022/04/01 07:52:07;;;;;;;2.60;2.50;;;;;;;0.88;88.25;100067.22;6101703;23;20036;-66
2022/04/01 07:54:45;;;;;;;2.50;2.40;;;;;;;0.92;89.15;100092.09;6076203;23;20026;-65
2022/04/01 07:57:13;;;;;;;2.40;2.30;;;;;;;0.84;88.86;100075.91;6109761;23;20041;-67
2022/04/01 07:59:40;;;;;;;2.60;2.50;;;;;;;0.66;88.05;100047.06;6099306;23;20025;-65
2022/04/01 08:02:07;;;;;;;2.70;2.60;;;;;;;0.67;88.41;100043.56;6097225;23;20424;-66
2022/04/01 08:04:34;;;;;;;2.60;2.50;;;;;;;0.82;88.34;100069.94;6101881;23;20055;-65
2022/04/01 08:07:07;;;;;;;2.60;2.50;;;;;;;0.86;88.88;100092.22;6084972;23;20029;-66
2022/04/01 08:09:35;;;;;;;2.60;2.50;;;;;;;0.90;89.67;100086.09;6113215;23;20273;-65
2022/04/01 08:12:02;;;;;;;4.45;4.25;;;;;;;0.90;89.62;100099.03;6099216;23;20083;-65
2022/04/01 08:14:29;;;;;;;2.60;2.50;;;;;;;0.90;89.58;100096.44;6105659;23;20039;-65
2022/04/01 08:16:56;;;;;;;4.05;3.85;;;;;;;0.89;88.61;100100.75;6105890;23;20013;-64
2022/04/01 08:19:23;;;;;;;2.60;2.50;;;;;;;0.88;89.19;100108.53;6083938;23;20178;-70
2022/04/01 08:21:49;;;;;;;3.42;3.33;;;;;;;0.65;88.84;100066.00;6088959;23;20022;-69
2022/04/01 08:24:16;;;;;;;2.60;2.50;;;;;;;0.53;88.34;100061.09;6083950;23;20232;-69
2022/04/01 08:26:43;;;;;;;2.70;2.60;;;;;;;-0.88;87.75;99836.16;6088105;23;20016;-70
2022/04/01 08:29:10;;;;;;;3.17;2.97;;;;;;;0.44;87.39;100066.44;6086527;23;20040;-67
2022/04/01 08:31:37;;;;;;;2.53;2.42;;;;;;;0.62;88.60;100094.44;6080512;23;20041;-69
2022/04/01 08:34:04;;;;;;;3.50;3.40;;;;;;;0.73;89.63;100110.56;6093819;23;20284;-65
2022/04/01 08:36:31;;;;;;;2.60;2.50;;;;;;;0.71;89.68;100117.50;6084876;23;20039;-64
2022/04/01 08:38:57;;;;;;;4.65;4.45;;;;;;;0.79;89.76;100144.03;6092558;23;20025;-64
2022/04/01 08:41:24;;;;;;;2.50;2.40;;;;;;;0.66;88.25;100140.00;6097172;23;20019;-65
2022/04/01 08:43:52;;;;;;;4.18;3.97;;;;;;;0.64;88.28;100149.50;6111945;23;20706;-65
2022/04/01 08:46:21;;;;;;;3.28;3.13;;;;;;;0.51;88.19;100125.66;6074455;23;20010;-64
2022/04/01 08:48:48;;;;;;;2.92;2.83;;;;;;;-0.54;87.96;99948.88;6090099;23;20043;-64
2022/04/01 08:51:15;;;;;;;2.60;2.50;;;;;;;0.64;88.33;100162.41;6080514;23;20017;-68
2022/04/01 08:53:44;;;;;;;2.50;2.40;;;;;;;0.65;88.70;100158.97;6096392;23;20391;-64
2022/04/01 08:56:12;;;;;;;2.70;2.60;;;;;;;0.68;87.98;100158.91;6063370;23;20026;-65
2022/04/01 08:58:39;;;;;;;3.00;2.90;;;;;;;0.70;88.86;100176.94;6102245;23;20013;-64
2022/04/01 09:01:06;;;;;;;3.30;3.20;;;;;;;0.44;88.72;100131.84;6064270;23;20493;-65
2022/04/01 09:03:35;;;;;;;2.60;2.50;;;;;;;0.66;87.56;100180.47;6100560;23;20446;-65
2022/04/01 09:06:03;;;;;;;4.35;4.15;;;;;;;0.63;88.46;100181.38;6071629;23;20012;-65
2022/04/01 09:08:33;;;;;;;2.80;2.70;;;;;;;0.66;87.27;100186.50;6102830;23;20013;-65
2022/04/01 09:11:04;;;;;;;4.35;4.15;;;;;;;0.58;86.77;100175.44;6089052;23;20528;-64
2022/04/01 09:13:48;;;;;;;2.70;2.60;;;;;;;0.68;87.40;100186.44;6096138;23;20089;-64
2022/04/01 09:16:41;;;;;;;2.47;2.38;;;;;;;0.60;86.85;100186.59;6057853;23;20062;-64
2022/04/01 09:19:09;;;;;;;2.50;2.40;;;;;;;0.65;87.40;100196.84;6076566;23;20104;-65
2022/04/01 09:21:44;;;;;;;2.47;2.38;;;;;;;0.64;86.80;100195.97;6110984;23;20025;-65
2022/04/01 09:24:11;;;;;;;2.60;2.50;;;;;;;0.51;86.67;100171.28;6051860;23;20777;-65
2022/04/01 09:26:39;;;;;;;2.70;2.60;;;;;;;0.70;85.97;100198.47;6118301;23;20028;-65
2022/04/01 09:29:08;;;;;;;3.13;3.03;;;;;;;0.77;86.21;100201.75;6062814;23;20030;-64
2022/04/01 09:31:37;;;;;;;2.40;2.30;;;;;;;0.66;85.91;100188.19;6106483;23;20089;-64
2022/04/01 09:34:12;;;;;;;3.78;3.65;;;;;;;0.65;85.48;100202.00;6084507;23;20358;-64
2022/04/01 09:36:41;;;;;;;;;;;;;;;0.74;85.15;100228.50;6025662;23;20227;-70
2022/04/01 09:39:16;;;;;;;2.50;2.40;;;;;;;0.56;85.11;100192.69;6031935;23;20425;-65
2022/04/01 09:41:48;;;;;;;2.40;2.30;;;;;;;0.67;84.10;100214.00;6117802;23;20056;-64
2022/04/01 09:44:28;;;;;;;2.60;2.50;;;;;;;0.73;84.18;100215.63;6089186;23;20018;-65
2022/04/01 09:46:58;;;;;;;4.25;4.05;;;;;;;0.77;83.50;100214.69;6094321;23;20092;-65
2022/04/01 09:49:39;;;;;;;3.35;3.25;;;;;;;0.52;84.96;100157.47;6118008;23;20025;-65
2022/04/01 09:52:11;;;;;;;2.45;2.35;;;;;;;0.89;82.50;100218.75;6087609;23;20085;-65
2022/04/01 09:54:49;;;;;;;2.45;2.35;;;;;;;-0.43;81.85;100011.38;6116775;23;20032;-65
2022/04/01 09:57:21;;;;;;;2.45;2.35;;;;;;;0.96;81.98;100217.72;6087843;23;20131;-64
2022/04/01 09:59:50;;;;;;;3.03;2.92;;;;;;;0.93;81.03;100220.38;6093604;23;20547;-65
2022/04/01 10:02:17;;;;;;;2.85;2.75;;;;;;;1.02;81.88;100229.69;6065033;23;20030;-65
2022/04/01 10:04:44;;;;;;;2.40;2.30;;;;;;;0.85;81.53;100214.53;6113236;23;20140;-64
2022/04/01 10:07:11;;;;;;;2.65;2.55;;;;;;;0.91;81.61;100233.34;6086329;23;20029;-66
2022/04/01 10:09:38;;;;;;;2.50;2.40;;;;;;;0.70;81.36;100200.16;6108337;23;20483;-67
2022/04/01 10:12:27;;;;;;;2.60;2.50;;;;;;;0.79;81.81;100208.59;6084979;23;20564;-67
2022/04/01 10:14:58;;;;;;;3.97;3.80;;;;;;;1.04;82.59;100233.91;6091508;23;20041;-67
2022/04/01 10:17:45;;;;;;;2.40;2.30;;;;;;;0.81;80.82;100220.63;6109153;23;20029;-66
2022/04/01 10:20:13;;;;;;;2.58;2.47;;;;;;;1.01;82.24;100246.06;6084103;23;20103;-64
2022/04/01 10:22:41;;;;;;;2.35;2.25;;;;;;;1.02;82.66;100250.34;6113474;23;20017;-67
2022/04/01 10:25:15;;;;;;;2.45;2.35;;;;;;;0.78;81.56;100213.78;6083379;23;20029;-65
2022/04/01 10:27:48;;;;;;;2.50;2.40;;;;;;;1.03;82.09;100247.75;6092540;23;20032;-64
2022/04/01 10:30:16;;;;;;;;;;;;;;;1.06;81.56;100252.81;6085985;23;20014;-64
2022/04/01 10:32:45;;;;;;;2.50;2.40;;;;;;;1.11;81.18;100257.94;6081815;23;19940;-66
2022/04/01 10:35:30;;;;;;;2.50;2.40;;;;;;;0.94;80.85;100256.53;6088914;23;20027;-64
2022/04/01 10:38:05;;;;;;;4.35;4.15;;;;;;;1.09;81.98;100259.69;6078316;23;20030;-64
2022/04/01 10:40:44;;;;;;;2.53;2.42;;;;;;;1.02;80.31;100258.94;6087057;23;20091;-66
2022/04/01 10:43:19;;;;;;;2.55;2.45;;;;;;;0.93;80.06;100233.31;6089643;23;20096;-66
2022/04/01 10:46:11;;;;;;;2.47;2.38;;;;;;;1.24;79.83;100279.19;6077293;23;20021;-64
2022/04/01 10:51:44;;;;;;;2.58;2.47;;;;;;;1.20;79.49;100257.72;6095558;23;20259;-71
2022/04/01 10:54:13;;;;;;;2.63;2.53;;;;;;;1.06;78.84;100268.34;6101906;23;20053;-67
2022/04/01 10:56:54;;;;;;;2.30;2.20;;;;;;;0.81;78.65;100223.22;6089855;23;20687;-65
2022/04/01 10:59:25;;;;;;;2.30;2.20;;;;;;;1.07;78.34;100277.81;6085227;23;20010;-64
2022/04/01 11:01:52;;;;;;;2.50;2.40;;;;;;;0.96;79.03;100277.16;6089179;23;20025;-66
2022/04/01 11:04:18;;;;;;;2.60;2.50;;;;;;;1.04;78.93;100284.75;6096589;23;20047;-65
2022/04/01 11:07:14;;;;;;;2.83;2.72;;;;;;;1.01;79.93;100272.75;6088716;23;20235;-66
2022/04/01 11:09:52;;;;;;;2.28;2.17;;;;;;;1.11;80.29;100271.69;6098333;23;20599;-67
2022/04/01 11:12:25;;;;;;;2.90;2.80;;;;;;;1.13;79.60;100282.00;6073915;23;20089;-67
2022/04/01 11:17:55;;;;;;;2.40;2.30;;;;;;;1.10;78.66;100284.63;6088042;23;20276;-64
2022/04/01 11:20:22;;;;;;;2.53;2.42;;;;;;;1.10;78.18;100269.13;6088072;23;20470;-64
2022/04/01 11:22:56;;;;;;;4.80;4.60;;;;;;;1.14;78.86;100287.16;6094020;23;20033;-63
2022/04/01 11:25:23;;;;;;;2.72;2.63;;;;;;;1.21;79.27;100284.44;6111222;23;20006;-67
2022/04/01 11:27:55;;;;;;;4.47;4.28;;;;;;;1.14;78.68;100289.72;6075607;23;20453;-66
2022/04/01 11:30:24;;;;;;;;;;;;;;;1.08;78.36;100283.81;6084486;23;20024;-64
2022/04/01 11:32:59;;;;;;;4.03;3.83;;;;;;;0.92;78.72;100265.19;6100031;23;19902;-66
2022/04/01 11:35:39;;;;;;;2.67;2.58;;;;;;;0.83;78.49;100250.72;6100520;23;20009;-66
2022/04/01 11:38:07;;;;;;;3.60;3.50;;;;;;;1.07;78.66;100298.47;6101829;23;20096;-65
2022/04/01 11:40:37;;;;;;;2.60;2.50;;;;;;;1.10;79.20;100298.44;6110830;23;20029;-65
2022/04/01 11:43:05;;;;;;;4.20;4.00;;;;;;;1.24;79.21;100298.13;6111726;23;20352;-66
2022/04/01 11:45:39;;;;;;;2.50;2.40;;;;;;;1.32;79.29;100296.25;6105881;23;20032;-66
2022/04/01 11:48:26;;;;;;;3.35;3.25;;;;;;;1.33;79.48;100302.28;6122477;23;20194;-65
2022/04/01 11:50:56;;;;;;;2.90;2.80;;;;;;;1.02;78.17;100255.50;6111055;23;20026;-64
2022/04/01 11:53:30;;;;;;;2.38;2.28;;;;;;;1.22;78.48;100306.81;6121995;23;20246;-67
2022/04/01 11:55:58;;;;;;;2.60;2.50;;;;;;;1.19;78.83;100290.47;6112712;23;20039;-66
2022/04/01 11:58:26;;;;;;;2.63;2.53;;;;;;;1.25;79.23;100301.59;6124444;23;20407;-67
2022/04/01 12:00:53;;;;;;;2.97;2.88;;;;;;;1.27;79.51;100307.56;6079602;23;20024;-67
2022/04/01 12:03:19;;;;;;;2.78;2.67;;;;;;;1.20;78.42;100306.81;6104193;23;20032;-65
2022/04/01 12:05:51;;;;;;;2.63;2.53;;;;;;;1.19;79.00;100299.97;6091982;23;20014;-66